Time;durP1;ratioP1;P1;durP2;ratioP2;P2;SDS_P1;SDS_P2;PMS_P1;PMS_P2;Temp;Humidity;BMP_temperature;BMP_pressure;BME280_temperature;BME280_humidity;BME280_pressure;Samples;Min_cycle;Max_cycle;Signal;HPM_P1;HPM_P2
2022/01/29 00:01:33;;;;;;;11.73;4.50;;;6.60;99.90;;;;;;5034546;28;20046;-76
2022/01/29 00:03:59;;;;;;;8.18;3.78;;;6.70;99.90;;;;;;5034480;28;20511;-76
2022/01/29 00:06:24;;;;;;;14.32;4.43;;;6.50;99.90;;;;;;5034423;28;20254;-76
2022/01/29 00:08:52;;;;;;;13.18;4.95;;;6.50;99.90;;;;;;5034509;28;20042;-76
2022/01/29 00:11:18;;;;;;;12.95;3.50;;;6.50;99.90;;;;;;5001975;28;20434;-76
2022/01/29 00:13:44;;;;;;;6.85;4.20;;;6.40;99.90;;;;;;5034574;28;20053;-76
2022/01/29 00:16:10;;;;;;;11.85;4.50;;;6.40;99.90;;;;;;5034182;28;20099;-79
2022/01/29 00:18:36;;;;;;;14.30;5.45;;;6.40;99.90;;;;;;5034260;28;20048;-76
2022/01/29 00:21:02;;;;;;;20.70;6.43;;;6.40;99.90;;;;;;5034158;28;20041;-78
2022/01/29 00:23:28;;;;;;;18.70;5.30;;;6.40;99.90;;;;;;5034127;28;20052;-76
2022/01/29 00:25:53;;;;;;;13.27;6.07;;;6.40;99.90;;;;;;5034058;28;20041;-78
2022/01/29 00:28:19;;;;;;;11.80;5.07;;;6.40;99.90;;;;;;5034510;28;20068;-76
2022/01/29 00:30:45;;;;;;;34.83;9.63;;;6.40;99.90;;;;;;5017494;28;20045;-76
2022/01/29 00:33:12;;;;;;;26.20;8.18;;;6.40;99.90;;;;;;5034086;28;20416;-76
2022/01/29 00:35:39;;;;;;;12.40;4.53;;;6.40;99.90;;;;;;5034089;28;20455;-79
2022/01/29 00:38:05;;;;;;;16.63;7.10;;;6.50;99.90;;;;;;5033300;28;20133;-78
2022/01/29 00:40:32;;;;;;;19.65;5.70;;;6.50;99.90;;;;;;5033337;28;20042;-76
2022/01/29 00:42:59;;;;;;;12.52;6.00;;;6.60;99.90;;;;;;5032855;28;20065;-79
2022/01/29 00:45:25;;;;;;;11.32;5.00;;;6.70;99.90;;;;;;5033092;28;20120;-78
2022/01/29 00:47:51;;;;;;;23.52;8.13;;;6.70;99.90;;;;;;5032959;28;20099;-78
2022/01/29 00:50:17;;;;;;;23.67;7.68;;;6.70;99.90;;;;;;5033861;28;20473;-78
2022/01/29 00:52:43;;;;;;;9.27;5.13;;;6.70;99.90;;;;;;5032456;28;20045;-79
2022/01/29 00:55:10;;;;;;;13.45;6.25;;;6.70;99.90;;;;;;5032982;28;20095;-76
2022/01/29 00:57:40;;;;;;;13.63;5.03;;;6.70;99.90;;;;;;5016817;28;20041;-78
2022/01/29 01:00:16;;;;;;;10.77;4.95;;;6.80;99.90;;;;;;5032928;28;20037;-76
2022/01/29 01:02:42;;;;;;;13.15;5.55;;;6.80;99.90;;;;;;5016398;28;20064;-78
2022/01/29 01:05:08;;;;;;;11.80;5.63;;;7.00;99.90;;;;;;5032006;28;20045;-76
2022/01/29 01:07:34;;;;;;;14.75;5.18;;;7.00;99.90;;;;;;5032324;28;20048;-77
2022/01/29 01:09:59;;;;;;;19.85;6.38;;;7.00;99.90;;;;;;5032582;28;20515;-76
2022/01/29 01:12:25;;;;;;;18.98;6.38;;;7.00;99.90;;;;;;5032241;28;20087;-78
2022/01/29 01:14:51;;;;;;;17.40;5.72;;;7.10;99.90;;;;;;5032590;28;20041;-79
2022/01/29 01:17:18;;;;;;;17.50;5.85;;;7.10;99.90;;;;;;5016462;28;20435;-79
2022/01/29 01:19:45;;;;;;;18.73;5.80;;;7.20;99.90;;;;;;5031922;28;20488;-78
2022/01/29 01:22:11;;;;;;;16.77;6.90;;;7.10;99.90;;;;;;5032845;28;20075;-76
2022/01/29 01:24:37;;;;;;;13.68;5.75;;;7.10;99.90;;;;;;5032405;28;20049;-78
2022/01/29 01:27:03;;;;;;;14.90;6.07;;;7.20;99.90;;;;;;5032137;28;20045;-79
2022/01/29 01:29:29;;;;;;;12.30;5.50;;;7.20;99.90;;;;;;5032406;28;20045;-76
2022/01/29 01:31:55;;;;;;;14.13;5.13;;;7.40;99.90;;;;;;4999931;28;20506;-76
2022/01/29 01:34:23;;;;;;;16.95;6.97;;;7.30;99.90;;;;;;5012867;28;20046;-77
2022/01/29 01:36:54;;;;;;;12.07;5.25;;;7.30;99.90;;;;;;5004961;28;20384;-78
2022/01/29 01:39:24;;;;;;;17.50;5.20;;;7.30;99.90;;;;;;5016093;28;20492;-78
2022/01/29 01:41:58;;;;;;;17.80;6.75;;;7.30;99.90;;;;;;5032394;28;20120;-78
2022/01/29 01:44:24;;;;;;;16.60;6.03;;;7.30;99.90;;;;;;5031811;28;20045;-79
2022/01/29 01:46:49;;;;;;;26.05;8.57;;;7.30;99.90;;;;;;5015601;28;20059;-78
2022/01/29 01:49:19;;;;;;;10.90;5.38;;;7.30;99.90;;;;;;5032704;28;20081;-77
2022/01/29 01:51:45;;;;;;;16.63;4.60;;;7.30;99.90;;;;;;5032201;28;20052;-78
2022/01/29 01:54:10;;;;;;;18.13;6.50;;;7.30;99.90;;;;;;5015983;28;20037;-76
2022/01/29 01:56:36;;;;;;;23.40;6.80;;;7.50;99.90;;;;;;5015363;28;20415;-76
2022/01/29 01:59:02;;;;;;;11.63;5.32;;;7.30;99.90;;;;;;5032444;28;20096;-79
2022/01/29 02:01:27;;;;;;;15.50;5.68;;;7.40;99.90;;;;;;5015707;28;20518;-76
2022/01/29 02:03:53;;;;;;;17.45;5.90;;;7.40;99.90;;;;;;5015614;28;20055;-76
2022/01/29 02:06:19;;;;;;;21.45;7.43;;;7.40;99.90;;;;;;4999574;28;20041;-79
2022/01/29 02:08:45;;;;;;;21.05;7.72;;;7.40;99.90;;;;;;5032157;28;20041;-78
2022/01/29 02:11:11;;;;;;;13.20;5.60;;;7.40;99.90;;;;;;5015516;28;20052;-78
2022/01/29 02:13:37;;;;;;;9.05;3.95;;;7.50;99.90;;;;;;5031847;28;20050;-76
2022/01/29 02:16:05;;;;;;;11.77;7.18;;;7.40;99.90;;;;;;5031826;28;20095;-76
2022/01/29 02:18:31;;;;;;;9.40;5.10;;;7.40;99.90;;;;;;5031925;28;20049;-76
2022/01/29 02:20:58;;;;;;;15.48;6.28;;;7.50;99.90;;;;;;5031847;28;20050;-79
2022/01/29 02:23:24;;;;;;;15.60;5.50;;;7.40;99.90;;;;;;5031763;28;20124;-79
2022/01/29 02:25:51;;;;;;;17.67;6.03;;;7.40;99.90;;;;;;5015276;28;20069;-76
2022/01/29 02:28:22;;;;;;;14.38;5.00;;;7.40;99.90;;;;;;5015592;28;20480;-77
2022/01/29 02:30:50;;;;;;;13.35;5.00;;;7.40;99.90;;;;;;5031655;28;20045;-77
2022/01/29 02:33:17;;;;;;;13.60;6.50;;;7.50;99.90;;;;;;5031825;28;20092;-76
2022/01/29 02:35:49;;;;;;;15.15;5.38;;;7.50;99.90;;;;;;5031506;28;20064;-77
2022/01/29 02:38:19;;;;;;;15.32;6.38;;;7.50;99.90;;;;;;5031576;28;20053;-76
2022/01/29 02:43:34;;;;;;;12.45;6.18;;;7.60;99.90;;;;;;5015312;28;20057;-79
2022/01/29 02:46:07;;;;;;;18.75;6.55;;;7.80;99.90;;;;;;5031302;28;20120;-77
2022/01/29 02:48:33;;;;;;;16.05;5.90;;;7.70;99.90;;;;;;5030738;28;20049;-76
2022/01/29 02:50:59;;;;;;;12.90;5.35;;;7.70;99.90;;;;;;5014658;28;20045;-76
2022/01/29 02:53:25;;;;;;;17.95;6.45;;;7.80;99.90;;;;;;5031099;28;20472;-76
2022/01/29 02:55:51;;;;;;;11.30;4.75;;;7.70;99.90;;;;;;5031427;28;20470;-79
2022/01/29 02:58:16;;;;;;;14.10;6.53;;;7.80;99.90;;;;;;5014380;28;20052;-75
2022/01/29 03:00:42;;;;;;;10.48;4.72;;;7.80;99.90;;;;;;5014787;28;20392;-76
2022/01/29 03:03:08;;;;;;;15.65;6.72;;;7.80;99.90;;;;;;5030644;28;20041;-76
2022/01/29 03:05:34;;;;;;;20.20;7.82;;;7.90;99.90;;;;;;5019573;28;20074;-76
2022/01/29 03:08:00;;;;;;;13.57;7.00;;;7.80;99.90;;;;;;5029497;28;20049;-76
2022/01/29 03:10:25;;;;;;;12.68;5.80;;;7.80;99.90;;;;;;5000857;28;20698;-76
2022/01/29 03:12:52;;;;;;;18.42;8.65;;;7.80;99.90;;;;;;5035137;28;20049;-79
2022/01/29 03:15:18;;;;;;;16.30;7.10;;;7.90;99.90;;;;;;5018065;28;20128;-76
2022/01/29 03:17:44;;;;;;;21.77;8.80;;;7.90;99.90;;;;;;5034464;28;20121;-79
2022/01/29 03:20:10;;;;;;;20.33;6.70;;;7.90;99.90;;;;;;5034813;28;20085;-76
2022/01/29 03:22:37;;;;;;;17.98;6.60;;;7.90;99.90;;;;;;5034901;28;20045;-77
2022/01/29 03:25:03;;;;;;;13.05;6.20;;;7.90;99.90;;;;;;5018122;28;20128;-79
2022/01/29 03:27:29;;;;;;;17.45;6.82;;;7.90;99.90;;;;;;5034773;28;20057;-77
2022/01/29 03:29:55;;;;;;;16.08;5.20;;;7.90;99.90;;;;;;5034752;28;20565;-79
2022/01/29 03:32:20;;;;;;;15.02;6.38;;;8.00;99.90;;;;;;5002197;28;20080;-78
2022/01/29 03:34:46;;;;;;;10.77;5.85;;;7.90;99.90;;;;;;5017773;28;20041;-76
2022/01/29 03:37:12;;;;;;;17.67;8.10;;;8.00;99.90;;;;;;5034597;28;20046;-79
2022/01/29 03:39:38;;;;;;;18.95;6.72;;;7.90;99.90;;;;;;5034628;28;20038;-78
2022/01/29 03:42:08;;;;;;;10.98;5.95;;;7.90;99.90;;;;;;5001629;28;20041;-80
2022/01/29 03:44:33;;;;;;;17.75;6.28;;;7.90;99.90;;;;;;5018218;28;20049;-79
2022/01/29 03:46:59;;;;;;;14.05;5.95;;;7.90;99.90;;;;;;5017656;28;20049;-77
2022/01/29 03:49:25;;;;;;;24.83;9.50;;;8.00;99.90;;;;;;5017720;28;20583;-77
2022/01/29 03:51:51;;;;;;;16.90;8.57;;;7.90;99.90;;;;;;5034899;28;20041;-77
2022/01/29 03:54:17;;;;;;;14.35;5.38;;;7.90;99.90;;;;;;5014334;28;20038;-79
2022/01/29 03:56:42;;;;;;;12.82;7.32;;;7.90;99.90;;;;;;5008110;28;20038;-79
2022/01/29 03:59:08;;;;;;;11.13;6.72;;;7.90;99.90;;;;;;5034239;28;20041;-79
2022/01/29 04:01:34;;;;;;;15.65;6.47;;;8.00;99.90;;;;;;5034319;28;20100;-76
2022/01/29 04:03:59;;;;;;;17.92;8.30;;;7.90;99.90;;;;;;5033958;28;20049;-77
2022/01/29 04:06:25;;;;;;;19.08;7.28;;;8.00;99.90;;;;;;5033799;28;20128;-80
2022/01/29 04:08:51;;;;;;;19.05;9.02;;;8.00;99.90;;;;;;5034431;28;20041;-79
2022/01/29 04:11:17;;;;;;;22.05;8.52;;;8.00;99.90;;;;;;5017561;28;20085;-79
2022/01/29 04:13:46;;;;;;;19.05;7.15;;;8.00;99.90;;;;;;5033670;28;20044;-78
2022/01/29 04:16:14;;;;;;;15.88;6.65;;;8.00;99.90;;;;;;5033680;28;20046;-79
2022/01/29 04:18:39;;;;;;;14.80;6.05;;;8.00;99.90;;;;;;5016393;28;20072;-79
2022/01/29 04:21:06;;;;;;;16.08;8.48;;;8.00;99.90;;;;;;5034205;28;20041;-79
2022/01/29 04:23:33;;;;;;;20.48;8.20;;;8.00;99.90;;;;;;5032771;28;20120;-78
2022/01/29 04:26:01;;;;;;;20.27;7.38;;;8.10;99.90;;;;;;5033704;28;20042;-76
2022/01/29 04:28:31;;;;;;;17.65;7.80;;;8.10;99.90;;;;;;5033861;28;20053;-77
2022/01/29 04:31:07;;;;;;;17.52;6.85;;;8.10;99.90;;;;;;5018022;28;20487;-77
2022/01/29 04:33:32;;;;;;;14.70;6.28;;;8.00;99.90;;;;;;5033070;28;20033;-77
2022/01/29 04:36:04;;;;;;;11.90;6.15;;;8.20;99.90;;;;;;5033372;28;20045;-77
2022/01/29 04:38:31;;;;;;;18.80;7.97;;;8.00;99.90;;;;;;5033119;28;20037;-78
2022/01/29 04:41:03;;;;;;;14.13;7.43;;;8.00;99.90;;;;;;5033721;28;20506;-76
2022/01/29 04:43:29;;;;;;;22.83;7.32;;;8.10;99.90;;;;;;5033573;28;20045;-79
2022/01/29 04:45:55;;;;;;;15.82;8.93;;;8.20;99.90;;;;;;5032797;28;20049;-77
2022/01/29 04:48:20;;;;;;;21.38;10.80;;;8.10;99.90;;;;;;5032999;28;20107;-79
2022/01/29 04:50:46;;;;;;;15.23;7.10;;;8.10;99.90;;;;;;5016552;28;20146;-79
2022/01/29 04:53:12;;;;;;;16.35;7.65;;;8.20;99.90;;;;;;5013626;28;20038;-76
2022/01/29 04:55:38;;;;;;;15.15;7.47;;;8.10;99.90;;;;;;5025638;28;20411;-79
2022/01/29 04:58:03;;;;;;;15.82;7.35;;;8.10;99.90;;;;;;5033329;28;20050;-79
2022/01/29 05:00:29;;;;;;;15.48;7.78;;;8.10;99.90;;;;;;5020378;28;20484;-78
2022/01/29 05:03:04;;;;;;;19.77;7.82;;;8.10;99.90;;;;;;5033324;28;20049;-79
2022/01/29 05:05:30;;;;;;;15.95;7.75;;;8.10;99.90;;;;;;5032627;28;20116;-77
2022/01/29 05:07:55;;;;;;;16.67;8.52;;;8.20;99.90;;;;;;5016638;28;20115;-77
2022/01/29 05:10:22;;;;;;;12.15;7.15;;;8.20;99.90;;;;;;5032440;28;20033;-76
2022/01/29 05:28:38;;;;;;;14.55;7.85;;;8.20;99.90;;;;;;5020058;28;20059;-79
2022/01/29 05:31:04;;;;;;;11.40;6.22;;;8.30;99.90;;;;;;5031486;28;20037;-79
2022/01/29 05:33:30;;;;;;;21.73;8.13;;;8.20;99.90;;;;;;5032219;28;20038;-79
2022/01/29 05:35:55;;;;;;;17.00;7.65;;;8.30;99.90;;;;;;5015691;28;20072;-77
2022/01/29 05:38:21;;;;;;;13.10;5.85;;;8.30;99.90;;;;;;5032220;28;20451;-77
2022/01/29 05:40:47;;;;;;;21.08;8.88;;;8.20;99.90;;;;;;5032711;28;20415;-77
2022/01/29 05:43:13;;;;;;;12.02;6.82;;;8.20;99.90;;;;;;5015649;28;20464;-77
2022/01/29 05:45:38;;;;;;;15.10;8.02;;;8.20;99.90;;;;;;5015450;28;20057;-77
2022/01/29 05:48:04;;;;;;;18.55;7.13;;;8.40;99.90;;;;;;5032036;28;20519;-77
2022/01/29 05:50:30;;;;;;;16.95;8.38;;;8.30;99.90;;;;;;5030024;28;20116;-77
2022/01/29 05:52:56;;;;;;;15.48;8.73;;;8.30;99.90;;;;;;5015643;28;20045;-79
2022/01/29 05:55:22;;;;;;;13.32;7.32;;;8.40;99.90;;;;;;5032296;28;20491;-79
2022/01/29 05:57:48;;;;;;;19.13;9.18;;;8.30;99.90;;;;;;5015116;28;20037;-79
2022/01/29 06:00:15;;;;;;;13.85;8.15;;;8.40;99.90;;;;;;5031484;28;20042;-77
2022/01/29 06:02:40;;;;;;;16.02;7.70;;;8.40;99.90;;;;;;5015759;28;20503;-79
2022/01/29 06:05:07;;;;;;;16.40;7.80;;;8.40;99.90;;;;;;5011919;28;20081;-79
2022/01/29 06:07:32;;;;;;;15.95;7.07;;;8.40;99.90;;;;;;5011218;28;20120;-77
2022/01/29 06:09:58;;;;;;;18.88;8.40;;;8.40;99.90;;;;;;5031335;28;20590;-79
2022/01/29 06:12:24;;;;;;;10.52;6.35;;;8.40;99.90;;;;;;5015551;28;20045;-79
2022/01/29 06:14:50;;;;;;;17.55;6.97;;;8.40;99.90;;;;;;5031783;28;20116;-79
2022/01/29 06:17:16;;;;;;;15.30;6.88;;;8.40;99.90;;;;;;5031805;28;20042;-77
2022/01/29 06:19:42;;;;;;;10.98;6.07;;;8.40;99.90;;;;;;5015387;28;20048;-79
2022/01/29 06:22:12;;;;;;;15.02;7.88;;;8.40;99.90;;;;;;5015418;28;20045;-80
2022/01/29 06:24:38;;;;;;;12.57;8.35;;;8.40;99.90;;;;;;5031718;28;20045;-79
2022/01/29 06:27:04;;;;;;;14.30;6.40;;;8.30;99.90;;;;;;5015658;28;20183;-77
2022/01/29 06:29:30;;;;;;;10.93;5.80;;;8.40;99.90;;;;;;5031691;28;20052;-78
2022/01/29 06:31:55;;;;;;;12.23;7.57;;;8.30;99.90;;;;;;5015130;28;20140;-79
2022/01/29 06:34:21;;;;;;;14.38;8.10;;;8.30;99.90;;;;;;5031621;28;20092;-76
2022/01/29 06:36:47;;;;;;;16.55;9.07;;;8.30;99.90;;;;;;5015230;28;20080;-77
2022/01/29 06:39:13;;;;;;;12.80;7.55;;;8.30;99.90;;;;;;5031684;28;20048;-77
2022/01/29 06:41:40;;;;;;;18.55;11.23;;;8.30;99.90;;;;;;4999820;28;20053;-79
2022/01/29 06:44:05;;;;;;;12.38;8.15;;;8.20;99.90;;;;;;5039889;28;20056;-79
2022/01/29 06:46:31;;;;;;;15.35;8.70;;;8.20;99.90;;;;;;5030896;28;20472;-77
2022/01/29 06:48:57;;;;;;;13.32;7.60;;;8.20;99.90;;;;;;4995637;28;20129;-78
2022/01/29 06:51:22;;;;;;;11.98;7.90;;;8.10;99.90;;;;;;5029368;28;20550;-79
2022/01/29 06:53:48;;;;;;;13.68;7.78;;;8.20;99.90;;;;;;5030868;28;20048;-76
2022/01/29 06:56:14;;;;;;;12.32;7.40;;;8.20;99.90;;;;;;5031205;28;20065;-79
2022/01/29 06:58:39;;;;;;;12.70;7.60;;;8.10;99.90;;;;;;5029726;28;20049;-79
2022/01/29 07:01:05;;;;;;;13.02;8.70;;;8.20;99.90;;;;;;5011095;28;20041;-79
2022/01/29 07:03:31;;;;;;;15.00;7.60;;;8.20;99.90;;;;;;5026367;28;20561;-78
2022/01/29 07:05:56;;;;;;;13.80;8.82;;;8.20;99.90;;;;;;5013947;28;20049;-79
2022/01/29 07:08:22;;;;;;;14.52;5.93;;;8.30;99.90;;;;;;5014082;28;20092;-77
2022/01/29 07:10:49;;;;;;;16.45;8.25;;;8.30;99.90;;;;;;5030687;28;20092;-77
2022/01/29 07:13:15;;;;;;;8.43;5.15;;;8.30;99.90;;;;;;5031001;28;20045;-77
2022/01/29 07:15:41;;;;;;;11.18;7.55;;;8.40;99.90;;;;;;5030376;28;20102;-79
2022/01/29 07:18:06;;;;;;;9.63;5.35;;;8.30;99.90;;;;;;5030723;28;20372;-77
2022/01/29 07:20:32;;;;;;;15.23;7.20;;;8.40;99.90;;;;;;5010933;28;20400;-79
2022/01/29 07:22:58;;;;;;;11.50;6.50;;;8.40;99.90;;;;;;5002366;28;20045;-77
2022/01/29 07:25:25;;;;;;;11.20;6.57;;;8.40;99.90;;;;;;5030280;28;20041;-76
2022/01/29 07:27:51;;;;;;;7.70;4.35;;;8.40;99.90;;;;;;5030929;28;20042;-79
2022/01/29 07:30:17;;;;;;;12.45;7.45;;;8.40;99.90;;;;;;5011400;28;20123;-76
2022/01/29 07:32:43;;;;;;;11.40;6.10;;;8.30;99.90;;;;;;5030367;28;20041;-79
2022/01/29 07:35:09;;;;;;;12.68;5.35;;;8.40;99.90;;;;;;5030222;28;20072;-79
2022/01/29 07:37:35;;;;;;;11.88;6.00;;;8.20;99.90;;;;;;5030714;28;20077;-79
2022/01/29 07:40:00;;;;;;;16.25;6.43;;;8.20;99.90;;;;;;5030461;28;20092;-79
2022/01/29 07:42:26;;;;;;;10.82;5.65;;;8.30;99.90;;;;;;5030807;28;20045;-79
2022/01/29 07:44:52;;;;;;;15.30;6.20;;;8.10;99.90;;;;;;5030312;28;20114;-77
2022/01/29 07:47:17;;;;;;;13.00;6.53;;;8.10;99.90;;;;;;5030445;28;20112;-77
2022/01/29 07:49:43;;;;;;;17.30;5.82;;;8.10;99.90;;;;;;5030729;28;20050;-77
2022/01/29 07:52:09;;;;;;;12.95;7.13;;;8.10;99.90;;;;;;5015123;28;20128;-76
2022/01/29 07:54:34;;;;;;;16.45;7.05;;;8.10;99.90;;;;;;5014416;28;20041;-79
2022/01/29 07:57:00;;;;;;;11.30;6.43;;;8.10;99.90;;;;;;5034523;28;20041;-79
2022/01/29 07:59:26;;;;;;;7.20;4.75;;;8.20;99.90;;;;;;5033778;28;20128;-79
2022/01/29 08:01:52;;;;;;;10.80;5.38;;;8.10;99.90;;;;;;5034246;28;20124;-77
2022/01/29 08:04:19;;;;;;;14.00;6.18;;;8.20;99.90;;;;;;5033948;28;20076;-76
2022/01/29 08:06:45;;;;;;;10.50;5.70;;;8.20;99.90;;;;;;5033812;28;20120;-76
2022/01/29 08:09:11;;;;;;;11.55;6.43;;;8.40;99.90;;;;;;5016892;28;20509;-79
2022/01/29 08:11:36;;;;;;;8.18;4.15;;;8.40;99.90;;;;;;5018249;28;20064;-79
2022/01/29 08:14:02;;;;;;;10.93;4.82;;;8.60;99.90;;;;;;5033713;28;20037;-79
2022/01/29 08:16:28;;;;;;;10.88;4.55;;;8.60;99.90;;;;;;5034034;28;20399;-77
2022/01/29 08:18:54;;;;;;;10.15;6.50;;;8.60;99.90;;;;;;5027185;28;20045;-77
2022/01/29 08:21:19;;;;;;;9.32;4.45;;;8.60;99.90;;;;;;5000378;28;20052;-79
2022/01/29 08:23:46;;;;;;;11.13;5.13;;;8.60;99.90;;;;;;5001027;28;20038;-78
2022/01/29 08:26:12;;;;;;;7.72;3.90;;;8.60;99.90;;;;;;5017266;28;20077;-79
2022/01/29 08:28:38;;;;;;;11.48;4.88;;;8.70;99.90;;;;;;5033436;28;20044;-77
2022/01/29 08:31:05;;;;;;;9.18;3.88;;;8.70;99.90;;;;;;5016834;28;20073;-79
2022/01/29 08:33:30;;;;;;;14.38;4.40;;;8.70;99.90;;;;;;5033009;28;20057;-79
2022/01/29 08:35:57;;;;;;;7.38;3.65;;;8.70;99.90;;;;;;5033122;28;20045;-77
2022/01/29 08:38:25;;;;;;;7.57;4.25;;;8.70;99.90;;;;;;5017315;28;20450;-80
2022/01/29 08:40:52;;;;;;;9.43;4.18;;;8.70;99.90;;;;;;5033084;28;20037;-79
2022/01/29 08:43:18;;;;;;;4.53;3.10;;;8.80;99.90;;;;;;5033424;28;20075;-78
2022/01/29 08:45:44;;;;;;;4.28;2.50;;;8.80;99.90;;;;;;5031682;28;20066;-80
2022/01/29 08:48:09;;;;;;;7.50;3.85;;;8.80;99.90;;;;;;5033142;28;20575;-79
2022/01/29 08:50:35;;;;;;;9.15;4.10;;;8.90;99.90;;;;;;5016417;28;20510;-79
2022/01/29 08:53:01;;;;;;;5.53;2.53;;;8.90;99.90;;;;;;5033826;28;20041;-80
2022/01/29 08:55:27;;;;;;;8.00;3.50;;;8.90;99.90;;;;;;5032481;28;20042;-77
2022/01/29 08:57:52;;;;;;;7.22;3.35;;;9.00;99.90;;;;;;5032501;28;20476;-77
2022/01/29 09:00:19;;;;;;;9.63;3.13;;;9.00;99.90;;;;;;5032734;28;20045;-79
2022/01/29 09:02:44;;;;;;;8.13;2.97;;;9.00;99.90;;;;;;5033435;28;20438;-79
2022/01/29 09:05:12;;;;;;;5.63;2.33;;;9.10;99.90;;;;;;5032322;28;20121;-78
2022/01/29 09:07:38;;;;;;;7.50;3.35;;;9.10;99.90;;;;;;5027435;28;20076;-80
2022/01/29 09:10:04;;;;;;;7.88;2.58;;;9.10;99.90;;;;;;5029574;28;20124;-77
2022/01/29 09:12:30;;;;;;;9.43;3.35;;;9.10;99.90;;;;;;5032931;28;20407;-77
2022/01/29 09:14:56;;;;;;;3.97;1.63;;;9.00;99.90;;;;;;4999785;28;20042;-79
2022/01/29 09:17:22;;;;;;;10.35;2.42;;;9.00;99.90;;;;;;5032418;28;20048;-78
2022/01/29 09:19:48;;;;;;;7.82;3.03;;;9.00;99.90;;;;;;5032470;28;20116;-76
2022/01/29 09:22:13;;;;;;;5.68;2.88;;;9.00;99.90;;;;;;5015939;28;20037;-76
2022/01/29 09:24:39;;;;;;;6.40;2.67;;;9.00;99.90;;;;;;5031282;28;20046;-77
2022/01/29 09:27:05;;;;;;;6.57;2.83;;;9.00;99.90;;;;;;5031898;28;20163;-77
2022/01/29 09:29:31;;;;;;;5.35;2.10;;;9.00;99.90;;;;;;5031867;28;20480;-76
2022/01/29 09:31:57;;;;;;;3.45;1.92;;;9.00;99.90;;;;;;5016424;28;20068;-79
2022/01/29 09:34:23;;;;;;;5.72;2.40;;;9.00;99.90;;;;;;5032040;28;20038;-76
2022/01/29 09:36:48;;;;;;;7.28;1.92;;;9.10;99.90;;;;;;5019980;28;20548;-76
2022/01/29 09:39:14;;;;;;;4.30;2.17;;;9.00;99.90;;;;;;5000002;28;20048;-76
2022/01/29 09:41:43;;;;;;;5.35;1.75;;;9.10;99.90;;;;;;5032571;28;20046;-79
2022/01/29 09:44:09;;;;;;;7.72;2.15;;;9.20;99.90;;;;;;5032909;28;20187;-80
2022/01/29 09:46:35;;;;;;;7.72;2.17;;;9.20;99.90;;;;;;5032172;28;20065;-78
2022/01/29 09:49:01;;;;;;;3.20;1.60;;;9.30;99.90;;;;;;5032236;28;20052;-76
2022/01/29 09:51:27;;;;;;;7.43;2.20;;;9.30;99.90;;;;;;5021062;28;20243;-76
2022/01/29 09:53:53;;;;;;;4.75;1.45;;;9.30;99.90;;;;;;5030484;28;20041;-79
2022/01/29 09:56:19;;;;;;;3.58;1.55;;;9.40;99.90;;;;;;5031198;28;20155;-80
2022/01/29 09:58:45;;;;;;;4.75;2.08;;;9.40;99.90;;;;;;5013489;28;20504;-80
2022/01/29 10:01:10;;;;;;;5.75;1.70;;;9.40;99.90;;;;;;5023580;28;20045;-77
2022/01/29 10:03:36;;;;;;;5.25;1.95;;;9.40;99.90;;;;;;5030295;28;20396;-79
2022/01/29 10:06:03;;;;;;;5.22;1.25;;;9.40;99.90;;;;;;5030735;28;20042;-80
2022/01/29 10:08:40;;;;;;;6.38;1.90;;;9.40;99.90;;;;;;5030984;28;20045;-78
2022/01/29 10:11:19;;;;;;;11.13;1.92;;;9.40;99.90;;;;;;5014281;28;20052;-79
2022/01/29 10:13:45;;;;;;;11.65;1.70;;;9.40;99.90;;;;;;5030739;28;20385;-77
2022/01/29 10:16:14;;;;;;;7.13;1.70;;;9.40;99.90;;;;;;5030109;28;20124;-80
2022/01/29 10:18:47;;;;;;;2.33;1.10;;;9.40;99.90;;;;;;5030003;28;20039;-77
2022/01/29 10:21:22;;;;;;;6.40;1.50;;;9.40;99.90;;;;;;5030304;28;20041;-77
2022/01/29 10:23:57;;;;;;;5.88;1.63;;;9.30;99.90;;;;;;5044351;28;20304;-80
2022/01/29 10:26:35;;;;;;;7.68;1.30;;;9.60;99.90;;;;;;5031280;28;20045;-80
2022/01/29 10:29:03;;;;;;;5.28;1.48;;;9.50;99.90;;;;;;5015617;28;20529;-77
2022/01/29 10:31:42;;;;;;;5.07;1.45;;;9.60;99.90;;;;;;5031377;28;20034;-80
2022/01/29 10:34:22;;;;;;;9.20;2.30;;;9.60;99.90;;;;;;5027453;28;20042;-80
2022/01/29 10:37:25;;;;;;;5.90;1.65;;;9.60;99.90;;;;;;5031796;28;20076;-77
2022/01/29 10:39:53;;;;;;;3.73;1.13;;;9.60;99.90;;;;;;5014991;28;20053;-80
2022/01/29 10:42:21;;;;;;;7.78;1.40;;;9.60;99.90;;;;;;5030828;28;20316;-80
2022/01/29 10:44:48;;;;;;;12.48;1.85;;;9.70;99.90;;;;;;5031306;28;20456;-80
2022/01/29 10:47:15;;;;;;;6.60;1.40;;;9.70;99.90;;;;;;5014453;28;20111;-80
2022/01/29 10:49:50;;;;;;;5.50;1.20;;;9.70;99.90;;;;;;4998439;28;20041;-77
2022/01/29 10:52:18;;;;;;;5.53;1.67;;;9.70;99.90;;;;;;5031314;28;20088;-80
2022/01/29 10:54:51;;;;;;;4.72;0.70;;;9.70;99.90;;;;;;5031172;28;20053;-78
2022/01/29 10:57:18;;;;;;;5.18;1.50;;;9.70;99.90;;;;;;5031165;28;20053;-81
2022/01/29 10:59:52;;;;;;;5.88;1.15;;;9.70;99.90;;;;;;5013606;28;20041;-78
2022/01/29 11:02:20;;;;;;;5.78;1.83;;;9.70;99.90;;;;;;5032255;28;20107;-77
2022/01/29 11:04:48;;;;;;;5.30;1.67;;;9.80;99.90;;;;;;5030871;28;20432;-77
2022/01/29 11:07:17;;;;;;;5.55;1.23;;;9.80;99.90;;;;;;5014758;28;20037;-81
2022/01/29 11:09:48;;;;;;;7.63;1.65;;;9.80;99.90;;;;;;5030941;28;20107;-77
2022/01/29 11:12:27;;;;;;;3.83;1.55;;;9.90;99.90;;;;;;5014532;28;20041;-78
2022/01/29 11:14:55;;;;;;;6.25;0.93;;;9.90;99.90;;;;;;5030953;28;20049;-80
2022/01/29 11:17:29;;;;;;;9.10;1.23;;;9.90;99.90;;;;;;5031215;28;20106;-77
2022/01/29 11:19:55;;;;;;;4.18;1.00;;;9.90;99.90;;;;;;5030818;28;20064;-80
2022/01/29 11:22:40;;;;;;;5.03;0.90;;;9.90;99.90;;;;;;5029483;28;20045;-80
2022/01/29 11:25:09;;;;;;;8.93;1.20;;;9.90;99.90;;;;;;5029717;28;20048;-80
2022/01/29 11:27:41;;;;;;;5.35;0.82;;;9.90;99.90;;;;;;5014005;28;20049;-77
2022/01/29 11:30:09;;;;;;;4.70;1.73;;;9.80;99.90;;;;;;5017709;28;20440;-81
2022/01/29 11:32:38;;;;;;;7.63;1.35;;;9.90;99.90;;;;;;5034775;28;20056;-80
2022/01/29 11:35:16;;;;;;;6.45;1.10;;;9.90;99.90;;;;;;5018160;28;20041;-76
2022/01/29 11:37:50;;;;;;;3.75;0.88;;;10.00;99.90;;;;;;5035008;28;20053;-78
2022/01/29 11:40:23;;;;;;;5.18;1.10;;;10.10;99.90;;;;;;5034940;28;20407;-77
2022/01/29 11:43:07;;;;;;;9.43;1.95;;;10.10;99.90;;;;;;5018465;28;20048;-77
2022/01/29 11:45:40;;;;;;;5.35;1.00;;;10.10;99.90;;;;;;5034748;28;20064;-80
2022/01/29 11:48:30;;;;;;;5.00;1.13;;;10.10;99.90;;;;;;5018222;28;20050;-79
2022/01/29 11:51:05;;;;;;;5.00;1.30;;;10.10;99.90;;;;;;5034882;28;20076;-80
2022/01/29 11:53:49;;;;;;;3.80;1.30;;;10.10;99.90;;;;;;5034881;28;20045;-77
2022/01/29 11:56:37;;;;;;;3.65;1.25;;;10.20;99.90;;;;;;5033521;28;20084;-77
2022/01/29 11:59:24;;;;;;;2.80;0.80;;;10.20;99.90;;;;;;5034337;28;20034;-80
2022/01/29 12:01:52;;;;;;;3.83;1.33;;;10.20;99.90;;;;;;5034496;28;20458;-78
2022/01/29 12:04:19;;;;;;;3.08;0.77;;;10.20;99.90;;;;;;5014401;28;20077;-80
2022/01/29 12:07:16;;;;;;;5.95;1.30;;;10.30;99.90;;;;;;5015072;28;20041;-80
2022/01/29 12:09:51;;;;;;;8.45;2.05;;;10.30;99.90;;;;;;5030109;28;20053;-77
2022/01/29 12:12:27;;;;;;;6.88;1.15;;;10.30;99.90;;;;;;5020903;28;20045;-78
2022/01/29 12:14:58;;;;;;;2.85;0.50;;;10.40;99.90;;;;;;5034144;28;20044;-80
2022/01/29 12:17:44;;;;;;;4.28;1.10;;;10.50;99.90;;;;;;5033956;28;20459;-79
2022/01/29 12:20:13;;;;;;;8.00;1.35;;;10.60;99.90;;;;;;5034047;28;20057;-79
2022/01/29 12:22:41;;;;;;;5.63;1.50;;;10.60;99.90;;;;;;5016740;28;20438;-78
2022/01/29 12:25:15;;;;;;;10.25;1.20;;;10.60;99.90;;;;;;5032480;28;20053;-80
2022/01/29 12:27:50;;;;;;;3.83;1.05;;;10.50;99.90;;;;;;5033764;28;20045;-77
2022/01/29 12:30:22;;;;;;;2.85;0.73;;;10.70;99.90;;;;;;5017013;28;20072;-78
2022/01/29 12:33:06;;;;;;;8.30;1.05;;;10.70;99.90;;;;;;5033259;28;20038;-77
2022/01/29 12:36:02;;;;;;;5.78;0.90;;;10.60;99.90;;;;;;5033455;28;20053;-77
2022/01/29 12:38:32;;;;;;;6.75;1.60;;;10.50;99.90;;;;;;5030839;28;20049;-76
2022/01/29 12:41:04;;;;;;;6.70;1.27;;;10.40;99.90;;;;;;5018933;28;20361;-78
2022/01/29 12:43:40;;;;;;;8.23;1.55;;;10.40;99.90;;;;;;5033049;28;20052;-77
2022/01/29 12:46:24;;;;;;;9.18;1.33;;;10.40;99.90;;;;;;5017233;28;20508;-80
2022/01/29 12:49:00;;;;;;;8.77;1.38;;;10.50;99.90;;;;;;5032887;28;20124;-80
2022/01/29 12:51:26;;;;;;;6.85;1.30;;;10.60;99.90;;;;;;5015996;28;20044;-79
2022/01/29 12:54:05;;;;;;;11.40;1.60;;;10.50;99.90;;;;;;5031793;28;20049;-76
2022/01/29 12:56:33;;;;;;;7.93;1.45;;;10.50;99.90;;;;;;5032263;28;20439;-76
2022/01/29 12:59:04;;;;;;;7.03;1.40;;;10.50;99.90;;;;;;5031699;28;20120;-79
2022/01/29 13:01:30;;;;;;;6.65;1.55;;;10.40;99.90;;;;;;5029072;28;20460;-80
2022/01/29 13:04:06;;;;;;;5.32;1.08;;;10.40;99.90;;;;;;5031967;28;20083;-80
2022/01/29 13:06:32;;;;;;;6.38;1.35;;;10.40;99.90;;;;;;5048200;28;20060;-79
2022/01/29 13:09:11;;;;;;;4.32;1.10;;;10.50;99.90;;;;;;5031526;28;20120;-80
2022/01/29 13:11:37;;;;;;;6.95;1.20;;;10.60;99.90;;;;;;5014254;28;20049;-77
2022/01/29 13:14:17;;;;;;;6.55;1.20;;;10.70;99.90;;;;;;5031941;28;20056;-76